createdAt,value
2022-12-24T00:01:01.437Z,12.02
2022-12-24T00:03:28.466Z,10.73
2022-12-24T00:05:55.391Z,9.60
2022-12-24T00:08:22.377Z,10.95
2022-12-24T00:10:51.553Z,11.25
2022-12-24T00:13:19.313Z,10.15
2022-12-24T00:15:46.269Z,11.52
2022-12-24T00:18:13.540Z,9.95
2022-12-24T00:20:40.556Z,11.15
2022-12-24T00:23:07.544Z,10.85
2022-12-24T00:25:34.474Z,11.52
2022-12-24T00:28:01.471Z,11.80
2022-12-24T00:30:28.443Z,11.77
2022-12-24T00:32:55.373Z,10.07
2022-12-24T00:35:22.286Z,9.98
2022-12-24T00:37:50.450Z,10.27
2022-12-24T00:40:18.028Z,9.45
2022-12-24T00:42:44.983Z,9.30
2022-12-24T00:45:12.977Z,9.10
2022-12-24T00:47:40.007Z,8.27
2022-12-24T00:50:07.513Z,10.32
2022-12-24T00:52:34.550Z,10.27
2022-12-24T00:55:01.380Z,8.85
2022-12-24T00:57:28.356Z,8.95
2022-12-24T00:59:55.196Z,7.82
2022-12-24T01:02:22.747Z,8.10
2022-12-24T01:05:08.658Z,7.88
2022-12-24T01:07:36.317Z,7.78
2022-12-24T01:10:03.910Z,6.82
2022-12-24T01:12:31.346Z,7.90
2022-12-24T01:14:58.179Z,6.45
2022-12-24T01:17:25.157Z,7.70
2022-12-24T01:19:52.074Z,7.88
2022-12-24T01:22:20.125Z,7.95
2022-12-24T01:24:47.102Z,8.05
2022-12-24T01:27:14.035Z,9.00
2022-12-24T01:29:41.026Z,8.63
2022-12-24T01:32:07.917Z,8.93
2022-12-24T01:34:34.988Z,8.93
2022-12-24T01:37:02.172Z,9.32
2022-12-24T01:39:29.141Z,8.90
2022-12-24T01:42:15.127Z,9.15
2022-12-24T01:44:44.193Z,9.45
2022-12-24T01:47:19.120Z,10.10
2022-12-24T01:49:50.681Z,9.43
2022-12-24T01:52:21.591Z,11.93
2022-12-24T01:54:55.058Z,11.75
2022-12-24T01:57:30.208Z,10.13
2022-12-24T02:00:02.699Z,12.02
2022-12-24T02:02:35.352Z,11.38
2022-12-24T02:05:08.198Z,12.90
2022-12-24T02:07:35.982Z,12.88
2022-12-24T02:10:04.737Z,11.55
2022-12-24T02:12:35.235Z,11.77
2022-12-24T02:15:02.795Z,12.05
2022-12-24T02:17:48.346Z,12.23
2022-12-24T02:20:49.737Z,11.40
2022-12-24T02:23:38.620Z,12.38
2022-12-24T02:26:23.878Z,11.57
2022-12-24T02:28:53.632Z,11.48
2022-12-24T02:31:39.335Z,12.07
2022-12-24T02:34:32.961Z,10.65
2022-12-24T02:37:24.595Z,10.02
2022-12-24T02:40:15.773Z,11.68
2022-12-24T02:42:47.764Z,10.90
2022-12-24T02:45:22.704Z,10.88
2022-12-24T02:47:51.513Z,10.55
2022-12-24T02:50:18.972Z,10.80
2022-12-24T02:52:47.912Z,10.35
2022-12-24T02:55:19.902Z,10.45
2022-12-24T02:58:01.933Z,8.95
2022-12-24T03:00:46.763Z,9.18
2022-12-24T03:03:42.736Z,9.73
2022-12-24T03:06:53.554Z,9.27
2022-12-24T03:09:53.015Z,9.85
2022-12-24T03:12:38.922Z,11.27
2022-12-24T03:17:40.979Z,9.68
2022-12-24T03:20:10.675Z,10.73
2022-12-24T03:22:38.720Z,10.63
2022-12-24T03:25:06.153Z,11.57
2022-12-24T03:27:34.867Z,10.38
2022-12-24T03:30:03.436Z,10.23
2022-12-24T03:32:32.117Z,11.65
2022-12-24T03:34:59.296Z,10.75
2022-12-24T03:37:27.210Z,11.15
2022-12-24T03:39:54.222Z,10.18
2022-12-24T03:42:21.042Z,11.18
2022-12-24T03:44:48.038Z,9.85
2022-12-24T03:47:14.932Z,10.82
2022-12-24T03:49:41.877Z,9.48
2022-12-24T03:52:08.752Z,10.13
2022-12-24T03:54:35.661Z,10.57
2022-12-24T03:57:02.525Z,9.48
2022-12-24T03:59:29.461Z,9.82
2022-12-24T04:01:56.668Z,7.95
2022-12-24T04:04:23.835Z,10.13
2022-12-24T04:06:51.127Z,10.57
2022-12-24T04:09:18.019Z,9.32
2022-12-24T04:11:44.864Z,10.40
2022-12-24T04:14:11.907Z,9.32
2022-12-24T04:16:38.893Z,9.43
2022-12-24T04:19:05.846Z,8.73
2022-12-24T04:21:32.757Z,9.27
2022-12-24T04:24:00.390Z,8.50
2022-12-24T04:26:27.293Z,8.63
2022-12-24T04:28:54.258Z,8.30
2022-12-24T04:31:21.122Z,10.68
2022-12-24T04:33:48.294Z,9.60
2022-12-24T04:36:17.409Z,9.98
2022-12-24T04:38:44.812Z,9.70
2022-12-24T04:41:23.956Z,10.30
2022-12-24T04:43:53.835Z,9.80
2022-12-24T04:46:26.172Z,10.02
2022-12-24T04:48:55.024Z,10.15
2022-12-24T04:51:23.591Z,9.75
2022-12-24T04:53:50.751Z,11.55
2022-12-24T04:56:20.807Z,10.45
2022-12-24T04:58:48.147Z,9.75
2022-12-24T05:01:20.015Z,9.95
2022-12-24T05:03:47.545Z,10.27
2022-12-24T05:06:16.864Z,10.40
2022-12-24T05:08:44.416Z,10.98
2022-12-24T05:11:14.357Z,8.25
2022-12-24T05:13:47.005Z,10.23
2022-12-24T05:16:16.881Z,10.90
2022-12-24T05:18:44.032Z,10.07
2022-12-24T05:21:14.770Z,9.38
2022-12-24T05:24:00.120Z,9.80
2022-12-24T05:26:38.222Z,9.77
2022-12-24T05:29:06.639Z,8.75
2022-12-24T05:31:34.070Z,8.73
2022-12-24T05:34:02.219Z,9.95
2022-12-24T05:36:29.118Z,8.88
2022-12-24T05:38:56.079Z,9.05
2022-12-24T05:41:23.131Z,9.60
2022-12-24T05:43:50.504Z,9.43
2022-12-24T05:46:20.733Z,9.45
2022-12-24T05:48:48.903Z,9.23
2022-12-24T05:51:19.649Z,8.70
2022-12-24T05:53:47.788Z,7.93
2022-12-24T05:56:17.875Z,8.45
2022-12-24T05:58:45.329Z,8.57
2022-12-24T06:01:12.739Z,9.05
2022-12-24T06:03:39.800Z,7.95
2022-12-24T06:06:10.676Z,8.30
2022-12-24T06:08:38.382Z,8.82
2022-12-24T06:11:08.285Z,9.48
2022-12-24T06:13:35.798Z,8.50
2022-12-24T06:16:04.910Z,9.43
2022-12-24T06:18:33.561Z,8.07
2022-12-24T06:21:01.023Z,8.05
2022-12-24T06:23:30.858Z,7.97
2022-12-24T06:26:01.033Z,8.35
2022-12-24T06:28:32.094Z,7.90
2022-12-24T06:31:02.988Z,8.75
2022-12-24T06:33:34.924Z,8.20
2022-12-24T06:36:02.108Z,8.25
2022-12-24T06:38:31.218Z,9.55
2022-12-24T06:40:58.236Z,8.40
2022-12-24T06:43:25.180Z,8.50
2022-12-24T06:45:52.112Z,8.05
2022-12-24T06:48:18.951Z,7.65
2022-12-24T06:50:45.944Z,8.40
2022-12-24T06:53:13.007Z,8.65
2022-12-24T06:55:40.192Z,8.32
2022-12-24T06:58:07.112Z,8.05
2022-12-24T07:00:34.449Z,7.93
2022-12-24T07:03:01.633Z,8.13
2022-12-24T07:05:28.982Z,9.02
2022-12-24T07:07:56.204Z,9.13
2022-12-24T07:10:23.331Z,9.23
2022-12-24T07:12:50.352Z,7.90
2022-12-24T07:15:17.609Z,8.23
2022-12-24T07:17:44.802Z,9.00
2022-12-24T07:20:16.996Z,7.40
2022-12-24T07:22:43.930Z,9.02
2022-12-24T07:25:11.812Z,9.50
2022-12-24T07:27:39.529Z,8.40
2022-12-24T07:30:07.541Z,8.60
2022-12-24T07:32:34.414Z,9.38
2022-12-24T07:35:01.498Z,9.73
2022-12-24T07:37:28.500Z,8.15
2022-12-24T07:39:56.112Z,8.05
2022-12-24T07:42:23.188Z,8.50
2022-12-24T07:44:50.178Z,9.60
2022-12-24T07:47:17.290Z,9.23
2022-12-24T07:49:44.147Z,8.38
2022-12-24T07:52:11.106Z,9.88
2022-12-24T07:54:38.024Z,8.40
2022-12-24T07:57:05.024Z,9.23
2022-12-24T07:59:31.863Z,9.20
2022-12-24T08:01:58.989Z,9.20
2022-12-24T08:04:26.517Z,9.32
2022-12-24T08:06:54.178Z,10.00
2022-12-24T08:09:24.390Z,8.90
2022-12-24T08:11:52.633Z,9.90
2022-12-24T08:14:20.470Z,8.98
2022-12-24T08:16:48.184Z,9.48
2022-12-24T08:19:15.665Z,9.30
2022-12-24T08:21:43.277Z,9.13
2022-12-24T08:24:10.808Z,10.23
2022-12-24T08:26:38.351Z,9.45
2022-12-24T08:29:08.185Z,9.57
2022-12-24T08:31:36.957Z,9.30
2022-12-24T08:34:08.318Z,10.32
2022-12-24T08:36:35.932Z,9.35
2022-12-24T08:39:03.961Z,8.60
2022-12-24T08:41:32.098Z,9.57
2022-12-24T08:43:59.823Z,9.80
2022-12-24T08:46:27.144Z,10.40
2022-12-24T08:48:54.061Z,9.40
2022-12-24T08:51:21.024Z,10.13
2022-12-24T08:53:48.127Z,8.70
2022-12-24T08:56:15.087Z,9.80
2022-12-24T08:58:42.148Z,9.90
2022-12-24T09:01:15.444Z,9.38
2022-12-24T09:03:43.143Z,9.25
2022-12-24T09:06:10.767Z,10.40
2022-12-24T09:08:37.860Z,9.15
2022-12-24T09:11:10.182Z,9.20
2022-12-24T09:13:37.614Z,9.57
2022-12-24T09:16:04.974Z,9.73
2022-12-24T09:18:31.920Z,10.63
2022-12-24T09:21:00.199Z,10.10
2022-12-24T09:23:27.264Z,8.50
2022-12-24T09:25:54.474Z,9.68
2022-12-24T09:28:22.019Z,10.38
2022-12-24T09:31:00.222Z,10.25
2022-12-24T09:33:28.966Z,10.50
2022-12-24T09:35:56.028Z,9.75
2022-12-24T09:38:23.198Z,9.45
2022-12-24T09:40:51.057Z,9.52
2022-12-24T09:43:22.214Z,9.38
2022-12-24T09:46:21.588Z,10.65
2022-12-24T09:48:53.808Z,9.27
2022-12-24T09:51:32.133Z,12.07
2022-12-24T09:54:17.846Z,9.55
2022-12-24T09:56:47.510Z,8.88
2022-12-24T09:59:23.223Z,10.07
2022-12-24T10:01:53.776Z,10.30
2022-12-24T10:04:27.055Z,10.80
2022-12-24T10:07:32.827Z,10.35
2022-12-24T10:10:11.847Z,9.77
2022-12-24T10:12:50.029Z,8.60
2022-12-24T10:15:19.934Z,9.57
2022-12-24T10:17:55.427Z,9.80
2022-12-24T10:20:53.972Z,9.23
2022-12-24T10:23:42.578Z,9.40
2022-12-24T10:26:50.161Z,9.45
2022-12-24T10:29:34.464Z,8.77
2022-12-24T10:32:10.431Z,9.25
2022-12-24T10:34:43.832Z,10.50
2022-12-24T10:37:24.917Z,9.82
2022-12-24T10:39:53.087Z,10.32
2022-12-24T10:42:21.886Z,8.25
2022-12-24T10:44:52.896Z,8.38
2022-12-24T10:47:22.238Z,8.00
2022-12-24T10:50:04.187Z,9.20
2022-12-24T10:52:35.737Z,10.38
2022-12-24T10:55:11.542Z,9.25
2022-12-24T10:57:40.367Z,7.85
2022-12-24T11:00:18.113Z,9.38
2022-12-24T11:02:46.721Z,9.48
2022-12-24T11:05:32.016Z,8.35
2022-12-24T11:08:13.979Z,9.38
2022-12-24T11:10:45.117Z,9.05
2022-12-24T11:13:37.974Z,9.52
2022-12-24T11:16:15.600Z,7.25
2022-12-24T11:18:52.388Z,7.82
2022-12-24T11:21:32.999Z,8.25
2022-12-24T11:24:12.657Z,9.38
2022-12-24T11:26:41.628Z,7.65
2022-12-24T11:29:23.769Z,8.38
2022-12-24T11:31:53.025Z,7.47
2022-12-24T11:34:27.593Z,8.07
2022-12-24T11:37:14.284Z,7.23
2022-12-24T11:39:51.469Z,8.77
2022-12-24T11:42:32.948Z,8.15
2022-12-24T11:45:02.196Z,8.57
2022-12-24T11:47:38.092Z,8.23
2022-12-24T11:50:27.045Z,8.35
2022-12-24T11:53:07.449Z,8.60
2022-12-24T11:56:02.556Z,7.88
2022-12-24T11:58:35.553Z,7.00
2022-12-24T12:01:35.438Z,7.43
2022-12-24T12:04:10.617Z,8.00
2022-12-24T12:06:55.610Z,9.80
2022-12-24T12:09:27.515Z,7.57
2022-12-24T12:12:21.520Z,8.65
2022-12-24T12:14:57.170Z,8.60
2022-12-24T12:17:39.187Z,9.40
2022-12-24T12:20:18.173Z,8.25
2022-12-24T12:23:00.127Z,9.10
2022-12-24T12:25:37.370Z,7.93
2022-12-24T12:28:11.947Z,8.57
2022-12-24T12:30:42.977Z,9.47
2022-12-24T12:33:15.635Z,8.60
2022-12-24T12:35:43.806Z,9.57
2022-12-24T12:38:15.188Z,8.60
2022-12-24T12:40:48.011Z,8.88
2022-12-24T12:43:45.708Z,10.20
2022-12-24T12:46:45.018Z,9.45
2022-12-24T12:49:37.160Z,9.18
2022-12-24T12:52:10.228Z,8.82
2022-12-24T12:55:02.525Z,9.38
2022-12-24T12:57:35.977Z,9.05
2022-12-24T13:00:16.745Z,9.60
2022-12-24T13:03:11.148Z,9.82
2022-12-24T13:06:03.896Z,9.70
2022-12-24T13:08:48.806Z,11.13
2022-12-24T13:11:30.789Z,10.43
2022-12-24T13:14:06.257Z,10.98
2022-12-24T13:19:37.982Z,11.45
2022-12-24T13:22:05.780Z,9.65
2022-12-24T13:24:33.705Z,9.63
2022-12-24T13:27:03.750Z,9.57
2022-12-24T13:29:40.331Z,7.57
2022-12-24T13:32:22.421Z,8.80
2022-12-24T13:35:00.583Z,8.13
2022-12-24T13:37:34.430Z,8.52
2022-12-24T13:40:09.976Z,8.63
2022-12-24T13:45:31.996Z,8.48
2022-12-24T13:48:01.312Z,9.35
2022-12-24T13:50:53.515Z,8.40
2022-12-24T13:53:32.525Z,8.45
2022-12-24T13:56:16.661Z,8.48
2022-12-24T13:58:55.100Z,9.52
2022-12-24T14:01:34.851Z,8.90
2022-12-24T14:04:04.975Z,8.65
2022-12-24T14:06:36.645Z,7.85
2022-12-24T14:09:19.312Z,9.20
2022-12-24T14:12:16.111Z,8.15
2022-12-24T14:14:43.462Z,7.88
2022-12-24T14:17:19.441Z,9.57
2022-12-24T14:20:08.826Z,8.50
2022-12-24T14:22:44.779Z,8.82
2022-12-24T14:25:23.427Z,8.68
2022-12-24T14:28:12.951Z,8.75
2022-12-24T14:30:39.883Z,8.15
2022-12-24T14:33:26.678Z,8.60
2022-12-24T14:35:53.610Z,9.18
2022-12-24T14:38:22.913Z,9.43
2022-12-24T14:41:01.173Z,10.32
2022-12-24T14:43:44.606Z,10.48
2022-12-24T14:46:37.021Z,8.82
2022-12-24T14:49:06.594Z,9.30
2022-12-24T14:52:00.691Z,8.43
2022-12-24T14:54:39.356Z,8.52
2022-12-24T14:57:12.526Z,9.43
2022-12-24T14:59:51.354Z,10.43
2022-12-24T15:02:36.993Z,8.52
2022-12-24T15:05:13.533Z,8.90
2022-12-24T15:08:04.494Z,9.57
2022-12-24T15:10:39.788Z,8.23
2022-12-24T15:13:46.921Z,8.82
2022-12-24T15:16:22.096Z,8.25
2022-12-24T15:18:55.148Z,9.70
2022-12-24T15:21:30.932Z,9.63
2022-12-24T15:23:57.971Z,8.30
2022-12-24T15:26:28.938Z,9.35
2022-12-24T15:29:03.238Z,9.48
2022-12-24T15:31:31.549Z,9.27
2022-12-24T15:33:59.555Z,10.65
2022-12-24T15:36:34.450Z,9.60
2022-12-24T15:39:05.274Z,9.15
2022-12-24T15:41:38.446Z,8.82
2022-12-24T15:44:05.517Z,11.07
2022-12-24T15:46:33.148Z,11.65
2022-12-24T15:49:02.809Z,11.57
2022-12-24T15:51:37.950Z,10.80
2022-12-24T15:54:14.047Z,9.93
2022-12-24T15:56:45.935Z,9.73
2022-12-24T15:59:18.837Z,10.07
2022-12-24T16:01:47.639Z,10.10
2022-12-24T16:04:24.319Z,10.10
2022-12-24T16:06:59.281Z,9.07
2022-12-24T16:09:46.159Z,9.82
2022-12-24T16:12:23.442Z,9.98
2022-12-24T16:14:55.202Z,8.88
2022-12-24T16:17:25.249Z,9.70
2022-12-24T16:19:54.944Z,9.57
2022-12-24T16:22:32.608Z,11.55
2022-12-24T16:25:00.993Z,10.07
2022-12-24T16:27:27.919Z,9.13
2022-12-24T16:29:54.869Z,9.40
2022-12-24T16:32:36.457Z,9.93
2022-12-24T16:35:05.691Z,9.75
2022-12-24T16:37:32.543Z,10.15
2022-12-24T16:40:00.749Z,11.77
2022-12-24T16:42:46.205Z,21.75
2022-12-24T16:45:13.149Z,41.88
2022-12-24T16:47:43.179Z,22.58
2022-12-24T16:50:16.774Z,18.50
2022-12-24T16:52:43.901Z,17.40
2022-12-24T16:55:14.014Z,12.93
2022-12-24T16:57:42.302Z,13.27
2022-12-24T17:00:29.543Z,12.43
2022-12-24T17:02:56.732Z,13.63
2022-12-24T17:05:24.009Z,13.50
2022-12-24T17:07:51.287Z,13.35
2022-12-24T17:10:18.436Z,11.63
2022-12-24T17:12:45.508Z,12.48
2022-12-24T17:15:12.720Z,12.75
2022-12-24T17:17:39.636Z,12.45
2022-12-24T17:20:07.600Z,12.32
2022-12-24T17:22:35.553Z,12.48
2022-12-24T17:25:02.543Z,11.15
2022-12-24T17:27:29.792Z,11.98
2022-12-24T17:29:56.768Z,12.23
2022-12-24T17:32:24.983Z,11.45
2022-12-24T17:34:51.980Z,12.48
2022-12-24T17:37:19.115Z,13.27
2022-12-24T17:39:46.021Z,16.13
2022-12-24T17:42:12.919Z,16.15
2022-12-24T17:44:39.815Z,16.75
2022-12-24T17:47:06.753Z,17.65
2022-12-24T17:49:33.704Z,17.25
2022-12-24T17:52:00.868Z,16.17
2022-12-24T17:54:27.859Z,16.45
2022-12-24T17:56:54.759Z,17.13
2022-12-24T17:59:22.059Z,17.58
2022-12-24T18:01:49.072Z,17.05
2022-12-24T18:04:16.083Z,18.63
2022-12-24T18:06:49.031Z,19.05
2022-12-24T18:09:17.292Z,18.48
2022-12-24T18:11:44.240Z,18.63
2022-12-24T18:14:13.918Z,17.80
2022-12-24T18:16:41.692Z,17.10
2022-12-24T18:19:10.971Z,19.17
2022-12-24T18:21:38.282Z,18.00
2022-12-24T18:24:05.680Z,17.63
2022-12-24T18:26:33.318Z,18.75
2022-12-24T18:29:04.310Z,17.40
2022-12-24T18:31:33.616Z,19.10
2022-12-24T18:34:02.585Z,18.08
2022-12-24T18:36:29.730Z,20.40
2022-12-24T18:38:56.743Z,21.67
2022-12-24T18:41:26.001Z,20.77
2022-12-24T18:43:53.792Z,19.20
2022-12-24T18:46:23.636Z,20.02
2022-12-24T18:48:51.351Z,22.30
2022-12-24T18:51:22.038Z,21.10
2022-12-24T18:53:49.568Z,19.25
2022-12-24T18:56:24.885Z,20.85
2022-12-24T18:58:57.384Z,19.35
2022-12-24T19:01:27.065Z,18.33
2022-12-24T19:03:54.556Z,19.92
2022-12-24T19:06:21.841Z,19.17
2022-12-24T19:08:59.228Z,18.17
2022-12-24T19:11:30.490Z,17.65
2022-12-24T19:14:00.644Z,18.52
2022-12-24T19:16:29.190Z,19.75
2022-12-24T19:18:56.521Z,18.48
2022-12-24T19:21:23.758Z,18.70
2022-12-24T19:23:51.740Z,16.92
2022-12-24T19:26:20.440Z,17.95
2022-12-24T19:28:48.077Z,18.67
2022-12-24T19:31:25.035Z,16.95
2022-12-24T19:33:57.341Z,17.35
2022-12-24T19:36:26.665Z,18.52
2022-12-24T19:38:53.879Z,18.13
2022-12-24T19:41:24.194Z,17.33
2022-12-24T19:43:53.113Z,16.25
2022-12-24T19:46:25.054Z,16.80
2022-12-24T19:48:54.944Z,17.48
2022-12-24T19:51:22.956Z,18.50
2022-12-24T19:53:50.116Z,20.98
2022-12-24T19:56:19.416Z,28.95
2022-12-24T19:58:47.081Z,24.23
2022-12-24T20:01:17.030Z,19.80
2022-12-24T20:03:45.008Z,17.60
2022-12-24T20:06:12.766Z,17.15
2022-12-24T20:08:40.296Z,16.85
2022-12-24T20:11:09.974Z,15.95
2022-12-24T20:13:38.100Z,15.32
2022-12-24T20:16:10.562Z,16.33
2022-12-24T20:18:38.016Z,15.15
2022-12-24T20:21:07.897Z,14.40
2022-12-24T20:23:37.267Z,15.50
2022-12-24T20:26:06.251Z,15.27
2022-12-24T20:28:36.722Z,15.68
2022-12-24T20:31:22.386Z,15.15
2022-12-24T20:33:49.852Z,14.60
2022-12-24T20:36:19.333Z,15.25
2022-12-24T20:38:47.350Z,15.07
2022-12-24T20:41:16.180Z,14.13
2022-12-24T20:43:48.329Z,14.68
2022-12-24T20:46:17.878Z,15.07
2022-12-24T20:48:45.170Z,15.10
2022-12-24T20:51:23.677Z,15.30
2022-12-24T20:53:57.195Z,18.00
2022-12-24T20:56:24.580Z,17.92
2022-12-24T20:58:51.739Z,16.50
2022-12-24T21:01:21.855Z,15.73
2022-12-24T21:03:49.152Z,15.80
2022-12-24T21:06:17.916Z,14.02
2022-12-24T21:08:46.448Z,15.25
2022-12-24T21:11:31.801Z,15.40
2022-12-24T21:13:59.113Z,12.77
2022-12-24T21:16:26.007Z,12.63
2022-12-24T21:18:53.027Z,14.98
2022-12-24T21:21:19.887Z,16.65
2022-12-24T21:23:46.775Z,15.05
2022-12-24T21:26:13.764Z,14.75
2022-12-24T21:28:40.891Z,11.02
2022-12-24T21:31:13.791Z,14.15
2022-12-24T21:33:41.064Z,14.10
2022-12-24T21:36:08.483Z,12.75
2022-12-24T21:38:35.849Z,13.88
2022-12-24T21:41:06.499Z,12.93
2022-12-24T21:43:35.045Z,13.48
2022-12-24T21:46:09.648Z,13.52
2022-12-24T21:48:55.995Z,11.40
2022-12-24T21:51:24.283Z,11.05
2022-12-24T21:54:09.716Z,11.15
2022-12-24T21:56:57.013Z,12.18
2022-12-24T21:59:27.124Z,11.32
2022-12-24T22:01:55.220Z,10.85
2022-12-24T22:04:22.549Z,9.98
2022-12-24T22:07:08.005Z,11.88
2022-12-24T22:09:53.991Z,11.45
2022-12-24T22:14:47.683Z,10.70
2022-12-24T22:17:19.748Z,10.68
2022-12-24T22:19:49.954Z,10.02
2022-12-24T22:22:16.826Z,10.52
2022-12-24T22:24:43.769Z,11.60
2022-12-24T22:27:10.602Z,10.00
2022-12-24T22:29:37.475Z,11.13
2022-12-24T22:32:04.412Z,10.10
2022-12-24T22:34:32.806Z,11.10
2022-12-24T22:36:59.698Z,10.30
2022-12-24T22:39:26.725Z,10.32
2022-12-24T22:41:53.682Z,10.32
2022-12-24T22:44:20.694Z,10.30
2022-12-24T22:46:47.521Z,10.23
2022-12-24T22:49:14.597Z,10.65
2022-12-24T22:51:41.498Z,9.52
2022-12-24T22:54:08.461Z,10.60
2022-12-24T22:56:40.778Z,10.38
2022-12-24T22:59:12.102Z,9.57
2022-12-24T23:01:41.303Z,9.13
2022-12-24T23:04:08.661Z,9.05
2022-12-24T23:06:35.991Z,8.15
2022-12-24T23:09:05.224Z,7.97
2022-12-24T23:11:32.343Z,7.60
2022-12-24T23:14:17.769Z,7.85
2022-12-24T23:16:44.762Z,8.27
2022-12-24T23:19:12.053Z,8.38
2022-12-24T23:21:38.972Z,8.65
2022-12-24T23:24:06.188Z,8.77
2022-12-24T23:26:33.196Z,8.02
2022-12-24T23:29:00.078Z,8.25
2022-12-24T23:31:27.303Z,7.35
2022-12-24T23:33:54.217Z,7.68
2022-12-24T23:36:21.255Z,8.13
2022-12-24T23:38:48.641Z,7.40
2022-12-24T23:41:18.632Z,8.38
2022-12-24T23:43:46.439Z,7.35
2022-12-24T23:46:18.437Z,6.97
2022-12-24T23:48:45.988Z,7.70
2022-12-24T23:51:16.215Z,7.20
2022-12-24T23:53:43.936Z,6.90
2022-12-24T23:56:12.049Z,6.90
2022-12-24T23:58:42.654Z,7.30
